sensor_id;sensor_type;location;lat;lon;timestamp;P1;durP1;ratioP1;P2;durP2;ratioP2
55718;SDS011;41623;46.104;19.656;2022-08-25T00:01:20;10.07;;;5.32;;
55718;SDS011;41623;46.104;19.656;2022-08-25T00:03:47;13.57;;;5.93;;
55718;SDS011;41623;46.104;19.656;2022-08-25T00:06:13;8.68;;;4.47;;
55718;SDS011;41623;46.104;19.656;2022-08-25T00:08:39;12.60;;;4.38;;
55718;SDS011;41623;46.104;19.656;2022-08-25T00:11:07;9.80;;;5.40;;
55718;SDS011;41623;46.104;19.656;2022-08-25T00:13:35;9.65;;;4.72;;
55718;SDS011;41623;46.104;19.656;2022-08-25T00:16:02;12.00;;;4.85;;
55718;SDS011;41623;46.104;19.656;2022-08-25T00:18:28;13.35;;;4.72;;
55718;SDS011;41623;46.104;19.656;2022-08-25T00:20:54;9.98;;;4.75;;
55718;SDS011;41623;46.104;19.656;2022-08-25T00:23:20;12.15;;;4.93;;
55718;SDS011;41623;46.104;19.656;2022-08-25T00:25:46;8.82;;;4.07;;
55718;SDS011;41623;46.104;19.656;2022-08-25T00:28:12;13.35;;;5.25;;
55718;SDS011;41623;46.104;19.656;2022-08-25T00:30:40;9.40;;;4.57;;
55718;SDS011;41623;46.104;19.656;2022-08-25T00:33:07;11.60;;;4.82;;
55718;SDS011;41623;46.104;19.656;2022-08-25T00:35:33;11.18;;;6.05;;
55718;SDS011;41623;46.104;19.656;2022-08-25T00:37:59;8.35;;;4.55;;
55718;SDS011;41623;46.104;19.656;2022-08-25T00:40:26;10.38;;;4.43;;
55718;SDS011;41623;46.104;19.656;2022-08-25T00:42:52;11.38;;;4.40;;
55718;SDS011;41623;46.104;19.656;2022-08-25T00:45:19;8.30;;;5.15;;
55718;SDS011;41623;46.104;19.656;2022-08-25T00:47:45;6.40;;;4.22;;
55718;SDS011;41623;46.104;19.656;2022-08-25T00:50:11;7.00;;;4.43;;
55718;SDS011;41623;46.104;19.656;2022-08-25T00:52:38;8.70;;;4.40;;
55718;SDS011;41623;46.104;19.656;2022-08-25T00:55:26;8.65;;;4.13;;
55718;SDS011;41623;46.104;19.656;2022-08-25T00:58:27;11.05;;;4.63;;
55718;SDS011;41623;46.104;19.656;2022-08-25T01:00:48;9.60;;;4.32;;
55718;SDS011;41623;46.104;19.656;2022-08-25T01:03:15;9.23;;;4.25;;
55718;SDS011;41623;46.104;19.656;2022-08-25T01:05:43;8.10;;;4.13;;
55718;SDS011;41623;46.104;19.656;2022-08-25T01:08:09;8.50;;;4.65;;
55718;SDS011;41623;46.104;19.656;2022-08-25T01:10:37;9.45;;;4.63;;
55718;SDS011;41623;46.104;19.656;2022-08-25T01:13:11;9.45;;;4.60;;
55718;SDS011;41623;46.104;19.656;2022-08-25T01:15:38;9.38;;;4.45;;
55718;SDS011;41623;46.104;19.656;2022-08-25T01:18:05;11.05;;;5.18;;
55718;SDS011;41623;46.104;19.656;2022-08-25T01:20:32;9.93;;;4.70;;
55718;SDS011;41623;46.104;19.656;2022-08-25T01:22:58;7.90;;;3.97;;
55718;SDS011;41623;46.104;19.656;2022-08-25T01:28:09;7.22;;;3.63;;
55718;SDS011;41623;46.104;19.656;2022-08-25T01:30:35;8.40;;;3.90;;
55718;SDS011;41623;46.104;19.656;2022-08-25T01:33:03;9.18;;;4.70;;
55718;SDS011;41623;46.104;19.656;2022-08-25T01:35:29;13.18;;;4.35;;
55718;SDS011;41623;46.104;19.656;2022-08-25T01:37:56;7.90;;;4.78;;
55718;SDS011;41623;46.104;19.656;2022-08-25T01:40:22;6.45;;;3.85;;
55718;SDS011;41623;46.104;19.656;2022-08-25T01:45:18;7.22;;;4.13;;
55718;SDS011;41623;46.104;19.656;2022-08-25T01:47:44;5.43;;;3.70;;
55718;SDS011;41623;46.104;19.656;2022-08-25T01:50:10;8.32;;;4.85;;
55718;SDS011;41623;46.104;19.656;2022-08-25T01:52:44;8.95;;;4.35;;
55718;SDS011;41623;46.104;19.656;2022-08-25T01:55:10;10.60;;;5.53;;
55718;SDS011;41623;46.104;19.656;2022-08-25T01:57:36;5.88;;;3.60;;
55718;SDS011;41623;46.104;19.656;2022-08-25T02:00:05;9.20;;;4.28;;
55718;SDS011;41623;46.104;19.656;2022-08-25T02:02:32;9.25;;;4.18;;
55718;SDS011;41623;46.104;19.656;2022-08-25T02:04:58;9.15;;;4.35;;
55718;SDS011;41623;46.104;19.656;2022-08-25T02:07:24;7.28;;;4.45;;
55718;SDS011;41623;46.104;19.656;2022-08-25T02:09:50;9.20;;;4.55;;
55718;SDS011;41623;46.104;19.656;2022-08-25T02:12:16;8.88;;;4.68;;
55718;SDS011;41623;46.104;19.656;2022-08-25T02:14:42;9.60;;;4.75;;
55718;SDS011;41623;46.104;19.656;2022-08-25T02:17:08;8.02;;;4.53;;
55718;SDS011;41623;46.104;19.656;2022-08-25T02:19:35;9.85;;;4.57;;
55718;SDS011;41623;46.104;19.656;2022-08-25T02:22:01;14.63;;;4.88;;
55718;SDS011;41623;46.104;19.656;2022-08-25T02:24:27;10.32;;;4.40;;
55718;SDS011;41623;46.104;19.656;2022-08-25T02:26:53;10.20;;;5.13;;
55718;SDS011;41623;46.104;19.656;2022-08-25T02:29:19;11.45;;;3.97;;
55718;SDS011;41623;46.104;19.656;2022-08-25T02:31:45;8.07;;;4.43;;
55718;SDS011;41623;46.104;19.656;2022-08-25T02:34:11;9.68;;;4.47;;
55718;SDS011;41623;46.104;19.656;2022-08-25T02:36:39;15.30;;;5.57;;
55718;SDS011;41623;46.104;19.656;2022-08-25T02:39:06;9.60;;;4.53;;
55718;SDS011;41623;46.104;19.656;2022-08-25T02:41:33;12.07;;;5.45;;
55718;SDS011;41623;46.104;19.656;2022-08-25T02:43:59;9.07;;;4.53;;
55718;SDS011;41623;46.104;19.656;2022-08-25T02:46:26;28.98;;;17.17;;
55718;SDS011;41623;46.104;19.656;2022-08-25T02:48:53;33.05;;;19.50;;
55718;SDS011;41623;46.104;19.656;2022-08-25T02:51:21;13.43;;;6.10;;
55718;SDS011;41623;46.104;19.656;2022-08-25T02:53:47;8.38;;;5.75;;
55718;SDS011;41623;46.104;19.656;2022-08-25T02:56:14;8.88;;;5.10;;
55718;SDS011;41623;46.104;19.656;2022-08-25T02:58:41;9.88;;;4.60;;
55718;SDS011;41623;46.104;19.656;2022-08-25T03:01:08;9.43;;;4.93;;
55718;SDS011;41623;46.104;19.656;2022-08-25T03:03:38;9.07;;;4.80;;
55718;SDS011;41623;46.104;19.656;2022-08-25T03:06:06;11.57;;;4.97;;
55718;SDS011;41623;46.104;19.656;2022-08-25T03:08:32;9.70;;;5.15;;
55718;SDS011;41623;46.104;19.656;2022-08-25T03:10:58;11.20;;;4.80;;
55718;SDS011;41623;46.104;19.656;2022-08-25T03:13:24;12.27;;;4.57;;
55718;SDS011;41623;46.104;19.656;2022-08-25T03:15:50;8.23;;;4.15;;
55718;SDS011;41623;46.104;19.656;2022-08-25T03:18:16;13.38;;;5.43;;
55718;SDS011;41623;46.104;19.656;2022-08-25T03:20:42;7.85;;;4.13;;
55718;SDS011;41623;46.104;19.656;2022-08-25T03:23:09;5.75;;;3.78;;
55718;SDS011;41623;46.104;19.656;2022-08-25T03:25:37;8.75;;;4.65;;
55718;SDS011;41623;46.104;19.656;2022-08-25T03:28:22;6.43;;;3.95;;
55718;SDS011;41623;46.104;19.656;2022-08-25T03:30:48;9.77;;;4.18;;
55718;SDS011;41623;46.104;19.656;2022-08-25T03:33:14;16.70;;;4.90;;
55718;SDS011;41623;46.104;19.656;2022-08-25T03:35:41;13.25;;;4.45;;
55718;SDS011;41623;46.104;19.656;2022-08-25T03:38:07;7.97;;;4.40;;
55718;SDS011;41623;46.104;19.656;2022-08-25T03:40:33;8.82;;;4.80;;
55718;SDS011;41623;46.104;19.656;2022-08-25T03:42:59;6.90;;;4.22;;
55718;SDS011;41623;46.104;19.656;2022-08-25T03:45:25;10.38;;;5.25;;
55718;SDS011;41623;46.104;19.656;2022-08-25T03:47:52;7.35;;;4.05;;
55718;SDS011;41623;46.104;19.656;2022-08-25T03:50:19;13.25;;;5.40;;
55718;SDS011;41623;46.104;19.656;2022-08-25T03:52:49;8.75;;;3.70;;
55718;SDS011;41623;46.104;19.656;2022-08-25T03:55:15;12.55;;;4.30;;
55718;SDS011;41623;46.104;19.656;2022-08-25T03:57:41;9.60;;;4.50;;
55718;SDS011;41623;46.104;19.656;2022-08-25T04:00:08;8.20;;;4.05;;
55718;SDS011;41623;46.104;19.656;2022-08-25T04:02:36;12.93;;;4.85;;
55718;SDS011;41623;46.104;19.656;2022-08-25T04:05:02;12.77;;;5.25;;
55718;SDS011;41623;46.104;19.656;2022-08-25T04:07:28;8.05;;;4.88;;
55718;SDS011;41623;46.104;19.656;2022-08-25T04:09:54;11.05;;;5.00;;
55718;SDS011;41623;46.104;19.656;2022-08-25T04:12:21;13.07;;;6.20;;
55718;SDS011;41623;46.104;19.656;2022-08-25T04:14:47;10.35;;;4.95;;
55718;SDS011;41623;46.104;19.656;2022-08-25T04:17:13;12.35;;;5.80;;
55718;SDS011;41623;46.104;19.656;2022-08-25T04:19:40;16.35;;;6.60;;
55718;SDS011;41623;46.104;19.656;2022-08-25T04:22:06;10.15;;;5.13;;
55718;SDS011;41623;46.104;19.656;2022-08-25T04:24:32;10.57;;;5.15;;
55718;SDS011;41623;46.104;19.656;2022-08-25T04:26:58;13.63;;;5.22;;
55718;SDS011;41623;46.104;19.656;2022-08-25T04:29:24;16.65;;;10.23;;
55718;SDS011;41623;46.104;19.656;2022-08-25T04:31:51;17.27;;;9.43;;
55718;SDS011;41623;46.104;19.656;2022-08-25T04:34:18;9.02;;;5.03;;
55718;SDS011;41623;46.104;19.656;2022-08-25T04:36:44;19.25;;;4.88;;
55718;SDS011;41623;46.104;19.656;2022-08-25T04:39:11;8.05;;;4.45;;
55718;SDS011;41623;46.104;19.656;2022-08-25T04:41:38;10.45;;;4.65;;
55718;SDS011;41623;46.104;19.656;2022-08-25T04:44:04;23.02;;;6.05;;
55718;SDS011;41623;46.104;19.656;2022-08-25T04:46:31;12.68;;;5.50;;
55718;SDS011;41623;46.104;19.656;2022-08-25T04:48:58;9.32;;;4.75;;
55718;SDS011;41623;46.104;19.656;2022-08-25T04:51:26;8.63;;;3.97;;
55718;SDS011;41623;46.104;19.656;2022-08-25T04:53:52;9.85;;;5.03;;
55718;SDS011;41623;46.104;19.656;2022-08-25T04:56:19;11.13;;;4.95;;
55718;SDS011;41623;46.104;19.656;2022-08-25T04:58:46;17.95;;;5.43;;
55718;SDS011;41623;46.104;19.656;2022-08-25T05:01:13;14.25;;;6.45;;
55718;SDS011;41623;46.104;19.656;2022-08-25T05:03:41;17.67;;;5.05;;
55718;SDS011;41623;46.104;19.656;2022-08-25T05:06:07;12.52;;;5.05;;
55718;SDS011;41623;46.104;19.656;2022-08-25T05:08:34;11.90;;;5.47;;
55718;SDS011;41623;46.104;19.656;2022-08-25T05:11:04;15.10;;;6.28;;
55718;SDS011;41623;46.104;19.656;2022-08-25T05:13:30;10.32;;;4.82;;
55718;SDS011;41623;46.104;19.656;2022-08-25T05:15:57;11.07;;;5.35;;
55718;SDS011;41623;46.104;19.656;2022-08-25T05:18:24;11.65;;;5.70;;
55718;SDS011;41623;46.104;19.656;2022-08-25T05:20:51;13.30;;;5.28;;
55718;SDS011;41623;46.104;19.656;2022-08-25T05:23:20;9.88;;;5.25;;
55718;SDS011;41623;46.104;19.656;2022-08-25T05:25:47;10.90;;;5.53;;
55718;SDS011;41623;46.104;19.656;2022-08-25T05:28:13;17.10;;;5.20;;
55718;SDS011;41623;46.104;19.656;2022-08-25T05:30:40;14.68;;;6.63;;
55718;SDS011;41623;46.104;19.656;2022-08-25T05:33:07;14.30;;;5.78;;
55718;SDS011;41623;46.104;19.656;2022-08-25T05:35:33;11.40;;;5.47;;
55718;SDS011;41623;46.104;19.656;2022-08-25T05:38:00;11.68;;;5.97;;
55718;SDS011;41623;46.104;19.656;2022-08-25T05:40:26;9.52;;;5.40;;
55718;SDS011;41623;46.104;19.656;2022-08-25T05:42:52;20.52;;;5.82;;
55718;SDS011;41623;46.104;19.656;2022-08-25T05:45:18;11.75;;;6.30;;
55718;SDS011;41623;46.104;19.656;2022-08-25T05:47:44;11.38;;;5.40;;
55718;SDS011;41623;46.104;19.656;2022-08-25T05:50:11;14.95;;;5.30;;
55718;SDS011;41623;46.104;19.656;2022-08-25T05:52:37;12.25;;;5.53;;
55718;SDS011;41623;46.104;19.656;2022-08-25T05:55:04;12.23;;;6.28;;
55718;SDS011;41623;46.104;19.656;2022-08-25T05:57:31;10.45;;;5.25;;
55718;SDS011;41623;46.104;19.656;2022-08-25T05:59:58;9.65;;;5.40;;
55718;SDS011;41623;46.104;19.656;2022-08-25T06:02:24;11.38;;;5.07;;
55718;SDS011;41623;46.104;19.656;2022-08-25T06:05:05;9.68;;;4.55;;
55718;SDS011;41623;46.104;19.656;2022-08-25T06:07:32;10.68;;;4.88;;
55718;SDS011;41623;46.104;19.656;2022-08-25T06:09:58;12.90;;;5.10;;
55718;SDS011;41623;46.104;19.656;2022-08-25T06:12:24;6.60;;;4.25;;
55718;SDS011;41623;46.104;19.656;2022-08-25T06:14:50;6.45;;;3.83;;
55718;SDS011;41623;46.104;19.656;2022-08-25T06:17:17;10.00;;;4.25;;
55718;SDS011;41623;46.104;19.656;2022-08-25T06:19:43;8.52;;;4.93;;
55718;SDS011;41623;46.104;19.656;2022-08-25T06:22:09;8.80;;;5.32;;
55718;SDS011;41623;46.104;19.656;2022-08-25T06:24:35;8.02;;;4.95;;
55718;SDS011;41623;46.104;19.656;2022-08-25T06:27:01;8.82;;;4.18;;
55718;SDS011;41623;46.104;19.656;2022-08-25T06:29:27;8.50;;;5.03;;
55718;SDS011;41623;46.104;19.656;2022-08-25T06:31:53;9.57;;;4.78;;
55718;SDS011;41623;46.104;19.656;2022-08-25T06:34:19;7.15;;;3.25;;
55718;SDS011;41623;46.104;19.656;2022-08-25T06:36:45;7.88;;;3.55;;
55718;SDS011;41623;46.104;19.656;2022-08-25T06:39:11;10.50;;;5.72;;
55718;SDS011;41623;46.104;19.656;2022-08-25T06:41:37;5.95;;;3.85;;
55718;SDS011;41623;46.104;19.656;2022-08-25T06:44:04;6.72;;;3.95;;
55718;SDS011;41623;46.104;19.656;2022-08-25T06:46:30;9.10;;;4.90;;
55718;SDS011;41623;46.104;19.656;2022-08-25T06:48:56;6.40;;;4.15;;
55718;SDS011;41623;46.104;19.656;2022-08-25T06:51:24;9.35;;;3.95;;
55718;SDS011;41623;46.104;19.656;2022-08-25T06:53:51;9.90;;;4.43;;
55718;SDS011;41623;46.104;19.656;2022-08-25T06:56:19;9.68;;;4.32;;
55718;SDS011;41623;46.104;19.656;2022-08-25T06:58:45;8.00;;;3.80;;
55718;SDS011;41623;46.104;19.656;2022-08-25T07:01:12;9.50;;;4.28;;
55718;SDS011;41623;46.104;19.656;2022-08-25T07:03:39;8.68;;;4.28;;
55718;SDS011;41623;46.104;19.656;2022-08-25T07:06:05;6.40;;;3.88;;
55718;SDS011;41623;46.104;19.656;2022-08-25T07:08:31;7.45;;;3.75;;
55718;SDS011;41623;46.104;19.656;2022-08-25T07:11:03;6.50;;;3.15;;
55718;SDS011;41623;46.104;19.656;2022-08-25T07:13:29;7.57;;;3.70;;
55718;SDS011;41623;46.104;19.656;2022-08-25T07:15:56;4.80;;;2.92;;
55718;SDS011;41623;46.104;19.656;2022-08-25T07:18:22;11.18;;;3.20;;
55718;SDS011;41623;46.104;19.656;2022-08-25T07:20:48;9.23;;;4.22;;
55718;SDS011;41623;46.104;19.656;2022-08-25T07:23:16;4.20;;;3.25;;
55718;SDS011;41623;46.104;19.656;2022-08-25T07:25:42;6.47;;;3.00;;
55718;SDS011;41623;46.104;19.656;2022-08-25T07:28:08;5.60;;;3.08;;
55718;SDS011;41623;46.104;19.656;2022-08-25T07:30:35;5.35;;;2.83;;
55718;SDS011;41623;46.104;19.656;2022-08-25T07:33:01;5.30;;;3.45;;
55718;SDS011;41623;46.104;19.656;2022-08-25T07:35:27;11.30;;;3.35;;
55718;SDS011;41623;46.104;19.656;2022-08-25T07:37:56;6.57;;;3.53;;
55718;SDS011;41623;46.104;19.656;2022-08-25T07:40:24;4.63;;;3.15;;
55718;SDS011;41623;46.104;19.656;2022-08-25T07:42:54;10.38;;;3.42;;
55718;SDS011;41623;46.104;19.656;2022-08-25T07:45:23;5.40;;;2.78;;
55718;SDS011;41623;46.104;19.656;2022-08-25T07:48:05;4.25;;;2.90;;
55718;SDS011;41623;46.104;19.656;2022-08-25T07:50:33;7.93;;;4.18;;
55718;SDS011;41623;46.104;19.656;2022-08-25T07:53:03;5.00;;;2.45;;
55718;SDS011;41623;46.104;19.656;2022-08-25T07:55:30;8.82;;;3.88;;
55718;SDS011;41623;46.104;19.656;2022-08-25T07:57:57;6.22;;;3.13;;
55718;SDS011;41623;46.104;19.656;2022-08-25T08:00:26;5.15;;;2.92;;
55718;SDS011;41623;46.104;19.656;2022-08-25T08:02:54;4.82;;;3.28;;
55718;SDS011;41623;46.104;19.656;2022-08-25T08:05:21;4.93;;;2.85;;
55718;SDS011;41623;46.104;19.656;2022-08-25T08:07:47;4.25;;;2.83;;
55718;SDS011;41623;46.104;19.656;2022-08-25T08:10:13;5.90;;;2.30;;
55718;SDS011;41623;46.104;19.656;2022-08-25T08:12:40;5.22;;;2.75;;
55718;SDS011;41623;46.104;19.656;2022-08-25T08:15:07;11.32;;;3.35;;
55718;SDS011;41623;46.104;19.656;2022-08-25T08:17:33;7.38;;;2.42;;
55718;SDS011;41623;46.104;19.656;2022-08-25T08:19:59;3.97;;;2.97;;
55718;SDS011;41623;46.104;19.656;2022-08-25T08:22:26;3.38;;;2.30;;
55718;SDS011;41623;46.104;19.656;2022-08-25T08:24:53;8.38;;;2.80;;
55718;SDS011;41623;46.104;19.656;2022-08-25T08:27:19;6.07;;;2.53;;
55718;SDS011;41623;46.104;19.656;2022-08-25T08:29:45;4.57;;;2.65;;
55718;SDS011;41623;46.104;19.656;2022-08-25T08:32:11;4.82;;;2.55;;
55718;SDS011;41623;46.104;19.656;2022-08-25T08:34:38;4.13;;;2.88;;
55718;SDS011;41623;46.104;19.656;2022-08-25T08:37:05;5.80;;;3.47;;
55718;SDS011;41623;46.104;19.656;2022-08-25T08:39:32;4.20;;;2.20;;
55718;SDS011;41623;46.104;19.656;2022-08-25T08:44:53;3.97;;;1.95;;
55718;SDS011;41623;46.104;19.656;2022-08-25T08:47:42;5.10;;;3.10;;
55718;SDS011;41623;46.104;19.656;2022-08-25T08:53:08;3.75;;;2.30;;
55718;SDS011;41623;46.104;19.656;2022-08-25T08:55:48;2.72;;;2.17;;
55718;SDS011;41623;46.104;19.656;2022-08-25T09:00:53;3.70;;;2.28;;
55718;SDS011;41623;46.104;19.656;2022-08-25T09:06:02;3.70;;;2.28;;
55718;SDS011;41623;46.104;19.656;2022-08-25T09:08:32;4.25;;;2.60;;
55718;SDS011;41623;46.104;19.656;2022-08-25T09:27:32;6.45;;;3.17;;
55718;SDS011;41623;46.104;19.656;2022-08-25T09:30:20;4.30;;;2.75;;
55718;SDS011;41623;46.104;19.656;2022-08-25T09:32:52;4.60;;;3.13;;
55718;SDS011;41623;46.104;19.656;2022-08-25T09:35:26;4.40;;;2.42;;
55718;SDS011;41623;46.104;19.656;2022-08-25T09:38:01;4.80;;;2.78;;
55718;SDS011;41623;46.104;19.656;2022-08-25T09:40:38;3.45;;;2.30;;
55718;SDS011;41623;46.104;19.656;2022-08-25T09:46:12;5.25;;;2.58;;
55718;SDS011;41623;46.104;19.656;2022-08-25T09:51:19;6.43;;;2.17;;
55718;SDS011;41623;46.104;19.656;2022-08-25T09:56:20;8.07;;;2.50;;
55718;SDS011;41623;46.104;19.656;2022-08-25T09:58:48;4.38;;;2.60;;
55718;SDS011;41623;46.104;19.656;2022-08-25T10:01:17;8.45;;;3.67;;
55718;SDS011;41623;46.104;19.656;2022-08-25T10:03:53;4.65;;;3.15;;
55718;SDS011;41623;46.104;19.656;2022-08-25T10:06:41;17.88;;;2.53;;
55718;SDS011;41623;46.104;19.656;2022-08-25T10:09:13;7.80;;;2.45;;
55718;SDS011;41623;46.104;19.656;2022-08-25T10:11:51;2.90;;;1.92;;
55718;SDS011;41623;46.104;19.656;2022-08-25T10:14:33;4.68;;;2.53;;
55718;SDS011;41623;46.104;19.656;2022-08-25T10:19:51;6.05;;;3.10;;
55718;SDS011;41623;46.104;19.656;2022-08-25T10:22:36;6.32;;;2.67;;
55718;SDS011;41623;46.104;19.656;2022-08-25T10:25:04;4.38;;;2.40;;
55718;SDS011;41623;46.104;19.656;2022-08-25T10:30:50;2.85;;;1.73;;
55718;SDS011;41623;46.104;19.656;2022-08-25T10:33:38;7.55;;;2.50;;
55718;SDS011;41623;46.104;19.656;2022-08-25T10:36:52;3.72;;;1.83;;
55718;SDS011;41623;46.104;19.656;2022-08-25T10:42:24;4.83;;;2.27;;
55718;SDS011;41623;46.104;19.656;2022-08-25T10:45:20;5.10;;;1.90;;
55718;SDS011;41623;46.104;19.656;2022-08-25T10:50:40;2.80;;;1.75;;
55718;SDS011;41623;46.104;19.656;2022-08-25T10:58:51;4.80;;;2.17;;
55718;SDS011;41623;46.104;19.656;2022-08-25T11:06:56;12.15;;;2.85;;
55718;SDS011;41623;46.104;19.656;2022-08-25T11:09:28;2.95;;;1.92;;
55718;SDS011;41623;46.104;19.656;2022-08-25T11:12:03;5.05;;;1.65;;
55718;SDS011;41623;46.104;19.656;2022-08-25T11:19:46;3.58;;;1.73;;
55718;SDS011;41623;46.104;19.656;2022-08-25T11:27:42;4.95;;;2.95;;
55718;SDS011;41623;46.104;19.656;2022-08-25T11:30:18;3.58;;;2.08;;
55718;SDS011;41623;46.104;19.656;2022-08-25T11:32:48;2.53;;;1.85;;
55718;SDS011;41623;46.104;19.656;2022-08-25T11:35:16;3.25;;;2.20;;
55718;SDS011;41623;46.104;19.656;2022-08-25T11:37:52;5.65;;;2.63;;
55718;SDS011;41623;46.104;19.656;2022-08-25T11:51:11;2.67;;;1.98;;
55718;SDS011;41623;46.104;19.656;2022-08-25T11:56:49;3.10;;;1.98;;
55718;SDS011;41623;46.104;19.656;2022-08-25T12:05:01;1.77;;;1.50;;
55718;SDS011;41623;46.104;19.656;2022-08-25T12:10:14;8.82;;;2.05;;
55718;SDS011;41623;46.104;19.656;2022-08-25T12:23:27;2.17;;;1.50;;
55718;SDS011;41623;46.104;19.656;2022-08-25T12:25:55;2.92;;;2.13;;
55718;SDS011;41623;46.104;19.656;2022-08-25T12:28:30;1.83;;;1.40;;
55718;SDS011;41623;46.104;19.656;2022-08-25T12:31:42;10.95;;;2.05;;
55718;SDS011;41623;46.104;19.656;2022-08-25T12:36:56;4.57;;;2.10;;
55718;SDS011;41623;46.104;19.656;2022-08-25T12:39:29;4.55;;;2.47;;
55718;SDS011;41623;46.104;19.656;2022-08-25T12:42:03;3.70;;;1.98;;
55718;SDS011;41623;46.104;19.656;2022-08-25T12:44:42;6.47;;;2.58;;
55718;SDS011;41623;46.104;19.656;2022-08-25T12:49:51;2.63;;;2.08;;
55718;SDS011;41623;46.104;19.656;2022-08-25T12:52:20;16.30;;;2.20;;
55718;SDS011;41623;46.104;19.656;2022-08-25T12:54:51;8.05;;;2.05;;
55718;SDS011;41623;46.104;19.656;2022-08-25T12:57:30;3.10;;;2.33;;
55718;SDS011;41623;46.104;19.656;2022-08-25T12:59:58;3.05;;;1.77;;
55718;SDS011;41623;46.104;19.656;2022-08-25T13:08:31;5.20;;;2.87;;
55718;SDS011;41623;46.104;19.656;2022-08-25T13:16:02;3.33;;;2.22;;
55718;SDS011;41623;46.104;19.656;2022-08-25T13:18:35;8.45;;;2.05;;
55718;SDS011;41623;46.104;19.656;2022-08-25T13:23:28;2.22;;;1.50;;
55718;SDS011;41623;46.104;19.656;2022-08-25T13:25:57;2.53;;;1.60;;
55718;SDS011;41623;46.104;19.656;2022-08-25T13:28:35;2.47;;;1.98;;
55718;SDS011;41623;46.104;19.656;2022-08-25T13:31:05;4.50;;;1.83;;
55718;SDS011;41623;46.104;19.656;2022-08-25T13:36:42;4.22;;;2.17;;
55718;SDS011;41623;46.104;19.656;2022-08-25T13:39:27;3.72;;;1.83;;
55718;SDS011;41623;46.104;19.656;2022-08-25T13:41:55;10.80;;;2.03;;
55718;SDS011;41623;46.104;19.656;2022-08-25T13:44:26;2.70;;;1.73;;
55718;SDS011;41623;46.104;19.656;2022-08-25T13:47:13;3.25;;;2.28;;
55718;SDS011;41623;46.104;19.656;2022-08-25T13:49:55;4.28;;;2.22;;
55718;SDS011;41623;46.104;19.656;2022-08-25T13:55:39;4.70;;;2.45;;
55718;SDS011;41623;46.104;19.656;2022-08-25T13:58:16;2.83;;;2.08;;
55718;SDS011;41623;46.104;19.656;2022-08-25T14:00:59;2.70;;;1.83;;
55718;SDS011;41623;46.104;19.656;2022-08-25T14:03:41;2.03;;;1.80;;
55718;SDS011;41623;46.104;19.656;2022-08-25T14:06:29;4.50;;;1.98;;
55718;SDS011;41623;46.104;19.656;2022-08-25T14:14:03;2.67;;;1.85;;
55718;SDS011;41623;46.104;19.656;2022-08-25T14:16:37;3.55;;;2.63;;
55718;SDS011;41623;46.104;19.656;2022-08-25T14:19:13;4.53;;;2.20;;
55718;SDS011;41623;46.104;19.656;2022-08-25T14:21:41;3.00;;;2.08;;
55718;SDS011;41623;46.104;19.656;2022-08-25T14:24:07;6.38;;;2.15;;
55718;SDS011;41623;46.104;19.656;2022-08-25T14:26:33;20.17;;;3.45;;
55718;SDS011;41623;46.104;19.656;2022-08-25T14:28:59;11.57;;;3.63;;
55718;SDS011;41623;46.104;19.656;2022-08-25T14:31:26;4.47;;;2.90;;
55718;SDS011;41623;46.104;19.656;2022-08-25T14:33:59;6.40;;;2.33;;
55718;SDS011;41623;46.104;19.656;2022-08-25T14:36:33;4.28;;;2.35;;
55718;SDS011;41623;46.104;19.656;2022-08-25T14:39:00;4.45;;;2.10;;
55718;SDS011;41623;46.104;19.656;2022-08-25T14:41:29;4.40;;;2.53;;
55718;SDS011;41623;46.104;19.656;2022-08-25T14:43:58;1.95;;;1.75;;
55718;SDS011;41623;46.104;19.656;2022-08-25T14:46:25;3.88;;;1.83;;
55718;SDS011;41623;46.104;19.656;2022-08-25T14:48:54;2.88;;;1.90;;
55718;SDS011;41623;46.104;19.656;2022-08-25T14:51:24;2.75;;;1.98;;
55718;SDS011;41623;46.104;19.656;2022-08-25T14:53:54;5.85;;;2.30;;
55718;SDS011;41623;46.104;19.656;2022-08-25T14:56:23;1.83;;;1.50;;
55718;SDS011;41623;46.104;19.656;2022-08-25T14:58:49;16.60;;;2.60;;
55718;SDS011;41623;46.104;19.656;2022-08-25T15:01:16;3.25;;;2.25;;
55718;SDS011;41623;46.104;19.656;2022-08-25T15:03:44;3.70;;;2.85;;
55718;SDS011;41623;46.104;19.656;2022-08-25T15:06:12;4.28;;;2.25;;
55718;SDS011;41623;46.104;19.656;2022-08-25T15:08:39;3.58;;;2.13;;
55718;SDS011;41623;46.104;19.656;2022-08-25T15:11:24;3.65;;;2.15;;
55718;SDS011;41623;46.104;19.656;2022-08-25T15:13:50;4.85;;;2.03;;
55718;SDS011;41623;46.104;19.656;2022-08-25T15:16:27;2.30;;;1.75;;
55718;SDS011;41623;46.104;19.656;2022-08-25T15:18:58;4.28;;;3.35;;
55718;SDS011;41623;46.104;19.656;2022-08-25T15:21:24;5.70;;;2.40;;
55718;SDS011;41623;46.104;19.656;2022-08-25T15:23:50;6.15;;;2.08;;
55718;SDS011;41623;46.104;19.656;2022-08-25T15:26:16;3.92;;;2.28;;
55718;SDS011;41623;46.104;19.656;2022-08-25T15:28:46;3.53;;;2.08;;
55718;SDS011;41623;46.104;19.656;2022-08-25T15:31:17;6.72;;;3.03;;
55718;SDS011;41623;46.104;19.656;2022-08-25T15:33:44;4.95;;;2.45;;
55718;SDS011;41623;46.104;19.656;2022-08-25T15:36:11;7.63;;;2.55;;
55718;SDS011;41623;46.104;19.656;2022-08-25T15:38:39;4.82;;;2.05;;
55718;SDS011;41623;46.104;19.656;2022-08-25T15:41:08;4.18;;;2.15;;
55718;SDS011;41623;46.104;19.656;2022-08-25T15:43:35;4.55;;;2.20;;
55718;SDS011;41623;46.104;19.656;2022-08-25T15:46:02;6.40;;;2.35;;
55718;SDS011;41623;46.104;19.656;2022-08-25T15:48:29;3.67;;;1.98;;
55718;SDS011;41623;46.104;19.656;2022-08-25T15:50:55;4.38;;;2.13;;
55718;SDS011;41623;46.104;19.656;2022-08-25T15:53:25;3.50;;;2.28;;
55718;SDS011;41623;46.104;19.656;2022-08-25T15:55:52;3.88;;;2.25;;
55718;SDS011;41623;46.104;19.656;2022-08-25T15:58:18;3.58;;;2.28;;
55718;SDS011;41623;46.104;19.656;2022-08-25T16:00:45;4.32;;;2.65;;
55718;SDS011;41623;46.104;19.656;2022-08-25T16:03:11;4.22;;;2.00;;
55718;SDS011;41623;46.104;19.656;2022-08-25T16:05:38;4.25;;;2.35;;
55718;SDS011;41623;46.104;19.656;2022-08-25T16:08:06;7.38;;;2.63;;
55718;SDS011;41623;46.104;19.656;2022-08-25T16:10:37;2.53;;;1.88;;
55718;SDS011;41623;46.104;19.656;2022-08-25T16:13:08;13.73;;;2.88;;
55718;SDS011;41623;46.104;19.656;2022-08-25T16:15:34;6.70;;;2.85;;
55718;SDS011;41623;46.104;19.656;2022-08-25T16:18:01;8.93;;;3.38;;
55718;SDS011;41623;46.104;19.656;2022-08-25T16:20:29;4.50;;;2.45;;
55718;SDS011;41623;46.104;19.656;2022-08-25T16:22:56;4.35;;;2.67;;
55718;SDS011;41623;46.104;19.656;2022-08-25T16:25:24;3.97;;;2.40;;
55718;SDS011;41623;46.104;19.656;2022-08-25T16:27:51;4.10;;;2.50;;
55718;SDS011;41623;46.104;19.656;2022-08-25T16:30:17;5.55;;;2.65;;
55718;SDS011;41623;46.104;19.656;2022-08-25T16:32:44;12.85;;;2.42;;
55718;SDS011;41623;46.104;19.656;2022-08-25T16:35:10;5.30;;;2.85;;
55718;SDS011;41623;46.104;19.656;2022-08-25T16:37:37;5.35;;;2.90;;
55718;SDS011;41623;46.104;19.656;2022-08-25T16:40:03;3.92;;;2.65;;
55718;SDS011;41623;46.104;19.656;2022-08-25T16:42:29;4.25;;;2.67;;
55718;SDS011;41623;46.104;19.656;2022-08-25T16:44:55;4.47;;;2.35;;
55718;SDS011;41623;46.104;19.656;2022-08-25T16:47:21;3.47;;;2.58;;
55718;SDS011;41623;46.104;19.656;2022-08-25T16:49:47;4.40;;;2.97;;
55718;SDS011;41623;46.104;19.656;2022-08-25T16:52:13;5.72;;;3.22;;
55718;SDS011;41623;46.104;19.656;2022-08-25T16:54:58;3.72;;;2.78;;
55718;SDS011;41623;46.104;19.656;2022-08-25T16:57:41;13.02;;;3.05;;
55718;SDS011;41623;46.104;19.656;2022-08-25T17:00:12;3.40;;;2.58;;